sensor_id;sensor_type;location;lat;lon;timestamp;pressure;altitude;pressure_sealevel;temperature;humidity
7018;BME280;3549;42.162;24.726;2023-12-22T00:02:09;46016.38;;;-141.97;74.25
7018;BME280;3549;42.162;24.726;2023-12-22T00:04:35;46214.25;;;-141.97;74.40
7018;BME280;3549;42.162;24.726;2023-12-22T00:07:00;46220.03;;;-141.97;74.40
7018;BME280;3549;42.162;24.726;2023-12-22T00:09:25;46600.47;;;-141.97;74.20
7018;BME280;3549;42.162;24.726;2023-12-22T00:11:51;46177.75;;;-141.97;74.35
7018;BME280;3549;42.162;24.726;2023-12-22T00:14:16;46106.66;;;-141.97;74.23
7018;BME280;3549;42.162;24.726;2023-12-22T00:16:42;46043.28;;;-141.97;74.12
7018;BME280;3549;42.162;24.726;2023-12-22T00:19:07;46216.19;;;-141.97;74.03
7018;BME280;3549;42.162;24.726;2023-12-22T00:21:32;46546.66;;;-141.97;74.43
7018;BME280;3549;42.162;24.726;2023-12-22T00:23:58;46227.72;;;-141.97;74.05
7018;BME280;3549;42.162;24.726;2023-12-22T00:26:23;46612.00;;;-141.97;74.26
7018;BME280;3549;42.162;24.726;2023-12-22T00:28:49;45885.72;;;-141.97;74.55
7018;BME280;3549;42.162;24.726;2023-12-22T00:31:14;46099.00;;;-141.97;74.47
7018;BME280;3549;42.162;24.726;2023-12-22T00:33:40;46392.94;;;-141.97;74.29
7018;BME280;3549;42.162;24.726;2023-12-22T00:36:05;46585.09;;;-141.97;74.43
7018;BME280;3549;42.162;24.726;2023-12-22T00:38:31;46546.66;;;-141.97;74.37
7018;BME280;3549;42.162;24.726;2023-12-22T00:40:56;46189.28;;;-141.97;74.68
7018;BME280;3549;42.162;24.726;2023-12-22T00:43:22;46123.97;;;-141.97;75.00
7018;BME280;3549;42.162;24.726;2023-12-22T00:45:47;46123.97;;;-141.97;75.01
7018;BME280;3549;42.162;24.726;2023-12-22T00:48:13;46166.22;;;-141.97;75.44
7018;BME280;3549;42.162;24.726;2023-12-22T00:50:38;46235.41;;;-141.97;75.87
7018;BME280;3549;42.162;24.726;2023-12-22T00:53:03;46039.44;;;-141.97;76.05
7018;BME280;3549;42.162;24.726;2023-12-22T00:55:29;45995.25;;;-141.97;76.71
7018;BME280;3549;42.162;24.726;2023-12-22T00:57:54;46158.53;;;-141.97;76.34
7018;BME280;3549;42.162;24.726;2023-12-22T01:00:20;46500.56;;;-141.97;76.46
7018;BME280;3549;42.162;24.726;2023-12-22T01:02:45;46221.94;;;-141.97;76.54
7018;BME280;3549;42.162;24.726;2023-12-22T01:05:11;46118.19;;;-141.97;76.87
7018;BME280;3549;42.162;24.726;2023-12-22T01:07:36;46452.50;;;-141.97;76.91
7018;BME280;3549;42.162;24.726;2023-12-22T01:10:02;46223.88;;;-141.97;76.60
7018;BME280;3549;42.162;24.726;2023-12-22T01:12:29;46054.81;;;-141.97;76.59
7018;BME280;3549;42.162;24.726;2023-12-22T01:14:56;46220.03;;;-141.97;76.13
7018;BME280;3549;42.162;24.726;2023-12-22T01:17:21;46064.41;;;-141.97;76.33
7018;BME280;3549;42.162;24.726;2023-12-22T01:19:47;46650.44;;;-141.97;75.58
7018;BME280;3549;42.162;24.726;2023-12-22T01:22:12;46227.72;;;-141.97;75.51
7018;BME280;3549;42.162;24.726;2023-12-22T01:24:38;46089.38;;;-141.97;75.51
7018;BME280;3549;42.162;24.726;2023-12-22T01:27:06;46027.91;;;-141.97;75.99
7018;BME280;3549;42.162;24.726;2023-12-22T01:29:32;46540.91;;;-141.97;75.96
7018;BME280;3549;42.162;24.726;2023-12-22T01:31:57;46148.94;;;-141.97;75.82
7018;BME280;3549;42.162;24.726;2023-12-22T01:34:22;46162.38;;;-141.97;75.63
7018;BME280;3549;42.162;24.726;2023-12-22T01:36:48;46072.09;;;-141.97;75.61
7018;BME280;3549;42.162;24.726;2023-12-22T01:39:15;46220.03;;;-141.97;75.58
7018;BME280;3549;42.162;24.726;2023-12-22T01:41:40;46652.34;;;-141.97;75.13
7018;BME280;3549;42.162;24.726;2023-12-22T01:44:05;46202.72;;;-141.97;75.47
7018;BME280;3549;42.162;24.726;2023-12-22T01:46:31;46004.84;;;-141.97;75.32
7018;BME280;3549;42.162;24.726;2023-12-22T01:48:58;46431.38;;;-141.97;75.24
7018;BME280;3549;42.162;24.726;2023-12-22T01:51:26;46492.88;;;-141.97;75.23
7018;BME280;3549;42.162;24.726;2023-12-22T01:53:52;46041.34;;;-141.97;75.51
7018;BME280;3549;42.162;24.726;2023-12-22T01:56:18;45981.78;;;-141.97;76.48
7018;BME280;3549;42.162;24.726;2023-12-22T01:58:44;46583.16;;;-141.97;75.39
7018;BME280;3549;42.162;24.726;2023-12-22T02:01:09;45947.22;;;-141.97;75.61
7018;BME280;3549;42.162;24.726;2023-12-22T02:03:35;46085.53;;;-141.97;75.42
7018;BME280;3549;42.162;24.726;2023-12-22T02:06:02;46049.03;;;-141.97;75.15
7018;BME280;3549;42.162;24.726;2023-12-22T02:08:31;46416.00;;;-141.97;75.07
7018;BME280;3549;42.162;24.726;2023-12-22T02:10:58;46131.66;;;-141.97;75.02
7018;BME280;3549;42.162;24.726;2023-12-22T02:13:23;46160.47;;;-141.97;74.70
7018;BME280;3549;42.162;24.726;2023-12-22T02:16:05;46500.56;;;-141.97;74.52
7018;BME280;3549;42.162;24.726;2023-12-22T02:18:37;46636.97;;;-141.97;74.11
7018;BME280;3549;42.162;24.726;2023-12-22T02:21:04;46143.19;;;-141.97;74.43
7018;BME280;3549;42.162;24.726;2023-12-22T02:23:29;46508.22;;;-141.97;74.34
7018;BME280;3549;42.162;24.726;2023-12-22T02:26:06;46208.50;;;-141.97;74.60
7018;BME280;3549;42.162;24.726;2023-12-22T02:28:36;46072.09;;;-141.97;74.59
7018;BME280;3549;42.162;24.726;2023-12-22T02:31:14;46239.25;;;-141.97;74.95
7018;BME280;3549;42.162;24.726;2023-12-22T02:33:42;46108.59;;;-141.97;75.56
7018;BME280;3549;42.162;24.726;2023-12-22T02:36:08;46256.53;;;-141.97;75.66
7018;BME280;3549;42.162;24.726;2023-12-22T02:38:35;46460.19;;;-141.97;75.74
7018;BME280;3549;42.162;24.726;2023-12-22T02:41:02;46004.84;;;-141.97;75.62
7018;BME280;3549;42.162;24.726;2023-12-22T02:43:28;46004.84;;;-141.97;76.19
7018;BME280;3549;42.162;24.726;2023-12-22T02:45:53;45985.63;;;-141.97;76.00
7018;BME280;3549;42.162;24.726;2023-12-22T02:48:19;46504.38;;;-141.97;76.28
7018;BME280;3549;42.162;24.726;2023-12-22T02:50:44;45970.25;;;-141.97;75.71
7018;BME280;3549;42.162;24.726;2023-12-22T02:53:10;46523.59;;;-141.97;75.95
7018;BME280;3549;42.162;24.726;2023-12-22T02:55:35;46243.09;;;-141.97;75.63
7018;BME280;3549;42.162;24.726;2023-12-22T02:58:00;46037.50;;;-141.97;76.04
7018;BME280;3549;42.162;24.726;2023-12-22T03:00:26;46008.69;;;-141.97;76.50
7018;BME280;3549;42.162;24.726;2023-12-22T03:02:51;46008.69;;;-141.97;76.02
7018;BME280;3549;42.162;24.726;2023-12-22T03:05:17;46077.84;;;-141.97;76.25
7018;BME280;3549;42.162;24.726;2023-12-22T03:07:42;46200.81;;;-141.97;75.97
7018;BME280;3549;42.162;24.726;2023-12-22T03:10:08;46425.63;;;-141.97;76.73
7018;BME280;3549;42.162;24.726;2023-12-22T03:12:33;46156.63;;;-141.97;77.29
7018;BME280;3549;42.162;24.726;2023-12-22T03:14:58;46112.44;;;-141.97;77.53
7018;BME280;3549;42.162;24.726;2023-12-22T03:17:24;46093.22;;;-141.97;77.06
7018;BME280;3549;42.162;24.726;2023-12-22T03:19:49;46187.38;;;-141.97;76.84
7018;BME280;3549;42.162;24.726;2023-12-22T03:22:15;46535.13;;;-141.97;77.06
7018;BME280;3549;42.162;24.726;2023-12-22T03:24:40;46187.38;;;-141.97;76.52
7018;BME280;3549;42.162;24.726;2023-12-22T03:27:06;46231.56;;;-141.97;76.16
7018;BME280;3549;42.162;24.726;2023-12-22T03:29:31;46604.31;;;-141.97;76.11
7018;BME280;3549;42.162;24.726;2023-12-22T03:31:56;46108.59;;;-141.97;76.44
7018;BME280;3549;42.162;24.726;2023-12-22T03:34:22;46035.59;;;-141.97;76.69
7018;BME280;3549;42.162;24.726;2023-12-22T03:36:47;46500.56;;;-141.97;77.22
7018;BME280;3549;42.162;24.726;2023-12-22T03:39:14;46202.72;;;-141.97;77.35
7018;BME280;3549;42.162;24.726;2023-12-22T03:41:40;46162.38;;;-141.97;77.34
7018;BME280;3549;42.162;24.726;2023-12-22T03:44:05;46529.38;;;-141.97;77.21
7018;BME280;3549;42.162;24.726;2023-12-22T03:46:32;46206.56;;;-141.97;77.03
7018;BME280;3549;42.162;24.726;2023-12-22T03:48:57;46243.09;;;-141.97;77.96
7018;BME280;3549;42.162;24.726;2023-12-22T03:51:23;46350.69;;;-141.97;77.62
7018;BME280;3549;42.162;24.726;2023-12-22T03:53:48;46058.63;;;-141.97;77.10
7018;BME280;3549;42.162;24.726;2023-12-22T03:56:14;46579.31;;;-141.97;77.03
7018;BME280;3549;42.162;24.726;2023-12-22T03:58:39;46116.28;;;-141.97;76.63
7018;BME280;3549;42.162;24.726;2023-12-22T04:01:04;46074.00;;;-141.97;75.92
7018;BME280;3549;42.162;24.726;2023-12-22T04:03:32;46381.41;;;-141.97;75.76
7018;BME280;3549;42.162;24.726;2023-12-22T04:06:01;46164.31;;;-141.97;75.80
7018;BME280;3549;42.162;24.726;2023-12-22T04:08:27;46440.97;;;-141.97;75.76
7018;BME280;3549;42.162;24.726;2023-12-22T04:10:52;46604.31;;;-141.97;75.39
7018;BME280;3549;42.162;24.726;2023-12-22T04:13:17;46588.94;;;-141.97;75.47
7018;BME280;3549;42.162;24.726;2023-12-22T04:15:43;46175.84;;;-141.97;74.60
7018;BME280;3549;42.162;24.726;2023-12-22T04:18:09;46099.00;;;-141.97;74.79
7018;BME280;3549;42.162;24.726;2023-12-22T04:20:35;46546.66;;;-141.97;74.61
7018;BME280;3549;42.162;24.726;2023-12-22T04:23:00;46166.22;;;-141.97;74.60
7018;BME280;3549;42.162;24.726;2023-12-22T04:25:25;46202.72;;;-141.97;74.95
7018;BME280;3549;42.162;24.726;2023-12-22T04:27:52;46204.66;;;-141.97;75.21
7018;BME280;3549;42.162;24.726;2023-12-22T04:30:17;46204.66;;;-141.97;74.36
7018;BME280;3549;42.162;24.726;2023-12-22T04:32:43;46123.97;;;-141.97;74.57
7018;BME280;3549;42.162;24.726;2023-12-22T04:35:08;46421.78;;;-141.97;74.47
7018;BME280;3549;42.162;24.726;2023-12-22T04:37:34;46519.75;;;-141.97;75.11
7018;BME280;3549;42.162;24.726;2023-12-22T04:39:59;46358.38;;;-141.97;74.31
7018;BME280;3549;42.162;24.726;2023-12-22T04:42:25;46008.69;;;-141.97;74.52
7018;BME280;3549;42.162;24.726;2023-12-22T04:44:51;46037.50;;;-141.97;74.45
7018;BME280;3549;42.162;24.726;2023-12-22T04:47:16;45974.09;;;-141.97;75.09
7018;BME280;3549;42.162;24.726;2023-12-22T04:49:42;46216.19;;;-141.97;74.95
7018;BME280;3549;42.162;24.726;2023-12-22T04:52:07;46206.56;;;-141.97;75.69
7018;BME280;3549;42.162;24.726;2023-12-22T04:54:32;46400.63;;;-141.97;75.95
7018;BME280;3549;42.162;24.726;2023-12-22T04:56:58;46354.53;;;-141.97;76.35
7018;BME280;3549;42.162;24.726;2023-12-22T04:59:23;46022.13;;;-141.97;76.73
7018;BME280;3549;42.162;24.726;2023-12-22T05:01:49;46097.06;;;-141.97;77.13
7018;BME280;3549;42.162;24.726;2023-12-22T05:04:14;46396.78;;;-141.97;77.41
7018;BME280;3549;42.162;24.726;2023-12-22T05:06:40;46104.75;;;-141.97;77.99
7018;BME280;3549;42.162;24.726;2023-12-22T05:09:05;46139.34;;;-141.97;79.12
7018;BME280;3549;42.162;24.726;2023-12-22T05:11:30;46139.34;;;-141.97;80.35
7018;BME280;3549;42.162;24.726;2023-12-22T05:13:56;46577.41;;;-141.97;81.00
7018;BME280;3549;42.162;24.726;2023-12-22T05:16:21;46204.66;;;-141.97;80.63
7018;BME280;3549;42.162;24.726;2023-12-22T05:18:47;46577.41;;;-141.97;80.83
7018;BME280;3549;42.162;24.726;2023-12-22T05:21:13;46548.59;;;-141.97;80.33
7018;BME280;3549;42.162;24.726;2023-12-22T05:23:39;46631.22;;;-141.97;80.04
7018;BME280;3549;42.162;24.726;2023-12-22T05:26:07;46206.56;;;-141.97;79.29
7018;BME280;3549;42.162;24.726;2023-12-22T05:28:33;46216.19;;;-141.97;78.50
7018;BME280;3549;42.162;24.726;2023-12-22T05:30:58;46540.91;;;-141.97;78.04
7018;BME280;3549;42.162;24.726;2023-12-22T05:33:24;46185.44;;;-141.97;77.71
7018;BME280;3549;42.162;24.726;2023-12-22T05:35:50;46243.09;;;-141.97;77.17
7018;BME280;3549;42.162;24.726;2023-12-22T05:38:15;46444.81;;;-141.97;77.08
7018;BME280;3549;42.162;24.726;2023-12-22T05:40:41;46014.44;;;-141.97;76.77
7018;BME280;3549;42.162;24.726;2023-12-22T05:43:06;46152.78;;;-141.97;76.86
7018;BME280;3549;42.162;24.726;2023-12-22T05:45:32;46467.88;;;-141.97;76.62
7018;BME280;3549;42.162;24.726;2023-12-22T05:47:57;45987.56;;;-141.97;76.53
7018;BME280;3549;42.162;24.726;2023-12-22T05:50:23;46193.13;;;-141.97;76.23
7018;BME280;3549;42.162;24.726;2023-12-22T05:52:48;46147.03;;;-141.97;75.88
7018;BME280;3549;42.162;24.726;2023-12-22T05:55:14;46139.34;;;-141.97;75.20
7018;BME280;3549;42.162;24.726;2023-12-22T05:57:39;46535.13;;;-141.97;75.14
7018;BME280;3549;42.162;24.726;2023-12-22T06:00:05;46538.97;;;-141.97;74.98
7018;BME280;3549;42.162;24.726;2023-12-22T06:02:33;46512.06;;;-141.97;74.68
7018;BME280;3549;42.162;24.726;2023-12-22T06:04:59;46481.34;;;-141.97;74.29
7018;BME280;3549;42.162;24.726;2023-12-22T06:07:24;46450.59;;;-141.97;73.78
7018;BME280;3549;42.162;24.726;2023-12-22T06:09:50;45935.69;;;-141.97;73.56
7018;BME280;3549;42.162;24.726;2023-12-22T06:12:15;45910.72;;;-141.97;73.35
7018;BME280;3549;42.162;24.726;2023-12-22T06:14:41;46150.84;;;-141.97;73.59
7018;BME280;3549;42.162;24.726;2023-12-22T06:17:06;46221.94;;;-141.97;73.62
7018;BME280;3549;42.162;24.726;2023-12-22T06:19:32;46429.47;;;-141.97;73.28
7018;BME280;3549;42.162;24.726;2023-12-22T06:21:57;45966.44;;;-141.97;73.33
7018;BME280;3549;42.162;24.726;2023-12-22T06:24:26;46118.19;;;-141.97;72.41
7018;BME280;3549;42.162;24.726;2023-12-22T06:26:51;45937.59;;;-141.97;72.67
7018;BME280;3549;42.162;24.726;2023-12-22T06:29:17;46208.50;;;-141.97;72.24
7018;BME280;3549;42.162;24.726;2023-12-22T06:31:42;46208.50;;;-141.97;72.75
7018;BME280;3549;42.162;24.726;2023-12-22T06:34:08;46210.41;;;-141.97;73.65
7018;BME280;3549;42.162;24.726;2023-12-22T06:36:33;46074.00;;;-141.97;72.50
7018;BME280;3549;42.162;24.726;2023-12-22T06:38:58;46204.66;;;-141.97;71.83
7018;BME280;3549;42.162;24.726;2023-12-22T06:41:30;46185.44;;;-141.97;71.96
7018;BME280;3549;42.162;24.726;2023-12-22T06:43:56;46496.72;;;-141.97;72.46
7018;BME280;3549;42.162;24.726;2023-12-22T06:46:23;46150.84;;;-141.97;73.22
7018;BME280;3549;42.162;24.726;2023-12-22T06:48:56;46202.72;;;-141.97;73.16
7018;BME280;3549;42.162;24.726;2023-12-22T06:51:23;46196.97;;;-141.97;73.16
7018;BME280;3549;42.162;24.726;2023-12-22T06:53:50;46193.13;;;-141.97;73.30
7018;BME280;3549;42.162;24.726;2023-12-22T06:56:23;46120.13;;;-141.97;73.50
7018;BME280;3549;42.162;24.726;2023-12-22T06:58:49;46145.09;;;-141.97;73.50
7018;BME280;3549;42.162;24.726;2023-12-22T07:01:34;46440.97;;;-141.97;73.25
7018;BME280;3549;42.162;24.726;2023-12-22T07:04:02;46421.78;;;-141.97;73.01
7018;BME280;3549;42.162;24.726;2023-12-22T07:06:32;46191.22;;;-141.97;72.87
7018;BME280;3549;42.162;24.726;2023-12-22T07:11:50;46196.97;;;-141.97;74.52
7018;BME280;3549;42.162;24.726;2023-12-22T07:14:16;46550.50;;;-141.97;73.71
7018;BME280;3549;42.162;24.726;2023-12-22T07:16:41;46200.81;;;-141.97;73.42
7018;BME280;3549;42.162;24.726;2023-12-22T07:19:08;46394.88;;;-141.97;73.13
7018;BME280;3549;42.162;24.726;2023-12-22T07:21:33;46081.69;;;-141.97;74.59
7018;BME280;3549;42.162;24.726;2023-12-22T07:23:59;46521.69;;;-141.97;74.94
7018;BME280;3549;42.162;24.726;2023-12-22T07:26:24;46058.63;;;-141.97;76.25
7018;BME280;3549;42.162;24.726;2023-12-22T07:28:54;46077.84;;;-141.97;77.53
7018;BME280;3549;42.162;24.726;2023-12-22T07:31:20;46508.22;;;-141.97;77.64
7018;BME280;3549;42.162;24.726;2023-12-22T07:33:45;46058.63;;;-141.97;77.51
7018;BME280;3549;42.162;24.726;2023-12-22T07:36:11;46200.81;;;-141.97;77.30
7018;BME280;3549;42.162;24.726;2023-12-22T07:38:37;46471.72;;;-141.97;78.40
7018;BME280;3549;42.162;24.726;2023-12-22T07:41:05;45947.22;;;-141.97;80.62
7018;BME280;3549;42.162;24.726;2023-12-22T07:43:30;46097.06;;;-141.97;80.85
7018;BME280;3549;42.162;24.726;2023-12-22T07:45:56;45893.41;;;-141.97;80.85
7018;BME280;3549;42.162;24.726;2023-12-22T07:48:21;46185.44;;;-141.97;80.30
7018;BME280;3549;42.162;24.726;2023-12-22T07:50:47;46367.97;;;-141.97;80.18
7018;BME280;3549;42.162;24.726;2023-12-22T07:53:12;46504.38;;;-141.97;80.25
7018;BME280;3549;42.162;24.726;2023-12-22T07:55:38;46487.09;;;-141.97;79.26
7018;BME280;3549;42.162;24.726;2023-12-22T07:58:07;46200.81;;;-141.97;77.86
7018;BME280;3549;42.162;24.726;2023-12-22T08:00:33;46638.91;;;-141.97;77.63
7018;BME280;3549;42.162;24.726;2023-12-22T08:02:58;46269.97;;;-141.97;77.09
7018;BME280;3549;42.162;24.726;2023-12-22T08:05:24;45981.78;;;-141.97;76.89
7018;BME280;3549;42.162;24.726;2023-12-22T08:08:05;46091.31;;;-141.97;76.40
7018;BME280;3549;42.162;24.726;2023-12-22T08:10:31;46001.00;;;-141.97;75.91
7018;BME280;3549;42.162;24.726;2023-12-22T08:12:56;46473.66;;;-141.97;75.53
7018;BME280;3549;42.162;24.726;2023-12-22T08:15:22;46604.31;;;-141.97;74.96
7018;BME280;3549;42.162;24.726;2023-12-22T08:17:50;46173.91;;;-141.97;74.89
7018;BME280;3549;42.162;24.726;2023-12-22T08:20:20;46039.44;;;-141.97;73.62
7018;BME280;3549;42.162;24.726;2023-12-22T08:22:49;46275.75;;;-141.97;74.19
7018;BME280;3549;42.162;24.726;2023-12-22T08:25:15;46638.91;;;-141.97;72.78
7018;BME280;3549;42.162;24.726;2023-12-22T08:27:42;46173.91;;;-141.97;72.82
7018;BME280;3549;42.162;24.726;2023-12-22T08:30:09;46195.06;;;-141.97;73.35
7018;BME280;3549;42.162;24.726;2023-12-22T08:32:34;45974.09;;;-141.97;73.88
7018;BME280;3549;42.162;24.726;2023-12-22T08:35:00;46108.59;;;-141.97;73.31
7018;BME280;3549;42.162;24.726;2023-12-22T08:37:25;46173.91;;;-141.97;72.98
7018;BME280;3549;42.162;24.726;2023-12-22T08:39:50;46367.97;;;-141.97;72.34
7018;BME280;3549;42.162;24.726;2023-12-22T08:42:17;46037.50;;;-141.97;71.47
7018;BME280;3549;42.162;24.726;2023-12-22T08:44:42;45939.53;;;-141.97;71.60
7018;BME280;3549;42.162;24.726;2023-12-22T08:47:08;46162.38;;;-141.97;70.85
7018;BME280;3549;42.162;24.726;2023-12-22T08:49:33;46437.13;;;-141.97;70.14
7018;BME280;3549;42.162;24.726;2023-12-22T08:51:58;45974.09;;;-141.97;69.10
7018;BME280;3549;42.162;24.726;2023-12-22T08:54:24;46490.94;;;-141.97;68.60
7018;BME280;3549;42.162;24.726;2023-12-22T08:56:49;46135.50;;;-141.97;67.86
7018;BME280;3549;42.162;24.726;2023-12-22T08:59:15;46335.31;;;-141.97;67.59
7018;BME280;3549;42.162;24.726;2023-12-22T09:01:40;46504.38;;;-141.97;67.23
7018;BME280;3549;42.162;24.726;2023-12-22T09:04:09;45914.56;;;-141.97;68.48
7018;BME280;3549;42.162;24.726;2023-12-22T09:06:36;45958.75;;;-141.97;68.10
7018;BME280;3549;42.162;24.726;2023-12-22T09:09:01;46412.16;;;-141.97;67.87
7018;BME280;3549;42.162;24.726;2023-12-22T09:11:28;46450.59;;;-141.97;68.37
7018;BME280;3549;42.162;24.726;2023-12-22T09:13:54;46542.81;;;-141.97;68.77
7018;BME280;3549;42.162;24.726;2023-12-22T09:16:21;46487.09;;;-141.97;69.94
7018;BME280;3549;42.162;24.726;2023-12-22T09:18:47;46170.06;;;-141.97;69.96
7018;BME280;3549;42.162;24.726;2023-12-22T09:21:12;45966.44;;;-141.97;69.72
7018;BME280;3549;42.162;24.726;2023-12-22T09:23:37;46402.56;;;-141.97;69.59
7018;BME280;3549;42.162;24.726;2023-12-22T09:26:03;45853.06;;;-141.97;69.01
7018;BME280;3549;42.162;24.726;2023-12-22T09:28:30;46481.34;;;-141.97;69.00
7018;BME280;3549;42.162;24.726;2023-12-22T09:30:55;46485.19;;;-141.97;68.71
7018;BME280;3549;42.162;24.726;2023-12-22T09:33:21;46139.34;;;-141.97;69.17
7018;BME280;3549;42.162;24.726;2023-12-22T09:35:47;46116.28;;;-141.97;69.10
7018;BME280;3549;42.162;24.726;2023-12-22T09:38:13;45951.06;;;-141.97;69.52
7018;BME280;3549;42.162;24.726;2023-12-22T09:40:39;46358.38;;;-141.97;70.14
7018;BME280;3549;42.162;24.726;2023-12-22T09:43:06;46465.97;;;-141.97;69.68
7018;BME280;3549;42.162;24.726;2023-12-22T09:45:32;46129.72;;;-141.97;69.92
7018;BME280;3549;42.162;24.726;2023-12-22T09:47:59;46043.28;;;-141.97;69.79
7018;BME280;3549;42.162;24.726;2023-12-22T09:50:30;46081.69;;;-141.97;69.30
7018;BME280;3549;42.162;24.726;2023-12-22T09:52:56;46446.75;;;-141.97;68.80
7018;BME280;3549;42.162;24.726;2023-12-22T09:55:22;46302.66;;;-141.97;68.92
7018;BME280;3549;42.162;24.726;2023-12-22T09:57:49;45868.44;;;-141.97;68.90
7018;BME280;3549;42.162;24.726;2023-12-22T10:00:15;46123.97;;;-141.97;69.34
7018;BME280;3549;42.162;24.726;2023-12-22T10:02:41;46500.56;;;-141.97;70.10
7018;BME280;3549;42.162;24.726;2023-12-22T10:05:10;46540.91;;;-141.97;70.50
7018;BME280;3549;42.162;24.726;2023-12-22T10:07:38;46469.81;;;-141.97;70.95
7018;BME280;3549;42.162;24.726;2023-12-22T10:10:05;46129.72;;;-141.97;71.00
7018;BME280;3549;42.162;24.726;2023-12-22T10:12:33;46392.94;;;-141.97;71.33
7018;BME280;3549;42.162;24.726;2023-12-22T10:15:00;46481.34;;;-141.97;71.68
7018;BME280;3549;42.162;24.726;2023-12-22T10:17:26;46465.97;;;-141.97;72.12
7018;BME280;3549;42.162;24.726;2023-12-22T10:19:51;45910.72;;;-141.97;72.29
7018;BME280;3549;42.162;24.726;2023-12-22T10:22:17;46001.00;;;-141.97;73.56
7018;BME280;3549;42.162;24.726;2023-12-22T10:24:45;46029.81;;;-141.97;74.46
7018;BME280;3549;42.162;24.726;2023-12-22T10:27:14;46396.78;;;-141.97;76.31
7018;BME280;3549;42.162;24.726;2023-12-22T10:29:40;46050.97;;;-141.97;78.06
7018;BME280;3549;42.162;24.726;2023-12-22T10:32:07;46373.72;;;-141.97;79.12
7018;BME280;3549;42.162;24.726;2023-12-22T10:34:33;46064.41;;;-141.97;79.91
7018;BME280;3549;42.162;24.726;2023-12-22T10:37:01;46118.19;;;-141.97;81.35
7018;BME280;3549;42.162;24.726;2023-12-22T10:39:31;46060.56;;;-141.97;82.11
7018;BME280;3549;42.162;24.726;2023-12-22T10:41:57;45947.22;;;-141.97;83.30
7018;BME280;3549;42.162;24.726;2023-12-22T10:44:27;45976.03;;;-141.97;83.51
7018;BME280;3549;42.162;24.726;2023-12-22T10:46:54;46123.97;;;-141.97;83.88
7018;BME280;3549;42.162;24.726;2023-12-22T10:49:20;46002.94;;;-141.97;85.05
7018;BME280;3549;42.162;24.726;2023-12-22T10:51:46;46335.31;;;-141.97;85.51
7018;BME280;3549;42.162;24.726;2023-12-22T10:54:11;46515.91;;;-141.97;85.67
7018;BME280;3549;42.162;24.726;2023-12-22T10:56:36;46293.03;;;-141.97;85.16
7018;BME280;3549;42.162;24.726;2023-12-22T10:59:02;46112.44;;;-141.97;85.69
7018;BME280;3549;42.162;24.726;2023-12-22T11:01:29;46097.06;;;-141.97;86.00
7018;BME280;3549;42.162;24.726;2023-12-22T11:03:57;45999.09;;;-141.97;85.04
7018;BME280;3549;42.162;24.726;2023-12-22T11:06:24;46131.66;;;-141.97;84.52
7018;BME280;3549;42.162;24.726;2023-12-22T11:08:56;46331.47;;;-141.97;85.15
7018;BME280;3549;42.162;24.726;2023-12-22T11:11:33;46131.66;;;-141.97;85.10
7018;BME280;3549;42.162;24.726;2023-12-22T11:14:00;45926.06;;;-141.97;84.74
7018;BME280;3549;42.162;24.726;2023-12-22T11:16:28;46031.75;;;-141.97;84.50
7018;BME280;3549;42.162;24.726;2023-12-22T11:18:54;46216.19;;;-141.97;82.98
7018;BME280;3549;42.162;24.726;2023-12-22T11:21:24;46043.28;;;-141.97;81.31
7018;BME280;3549;42.162;24.726;2023-12-22T11:23:50;46358.38;;;-141.97;79.03
7018;BME280;3549;42.162;24.726;2023-12-22T11:26:19;46458.28;;;-141.97;77.67
7018;BME280;3549;42.162;24.726;2023-12-22T11:28:46;46077.84;;;-141.97;76.27
7018;BME280;3549;42.162;24.726;2023-12-22T11:31:12;45920.31;;;-141.97;76.17
7018;BME280;3549;42.162;24.726;2023-12-22T11:33:43;45839.63;;;-141.97;75.91
7018;BME280;3549;42.162;24.726;2023-12-22T11:36:11;45808.91;;;-141.97;75.89
7018;BME280;3549;42.162;24.726;2023-12-22T11:38:37;45974.09;;;-141.97;75.32
7018;BME280;3549;42.162;24.726;2023-12-22T11:41:03;45999.09;;;-141.97;74.60
7018;BME280;3549;42.162;24.726;2023-12-22T11:43:31;46519.75;;;-141.97;73.98
7018;BME280;3549;42.162;24.726;2023-12-22T11:46:06;45755.09;;;-141.97;72.52
7018;BME280;3549;42.162;24.726;2023-12-22T11:48:32;45922.25;;;-141.97;71.95
7018;BME280;3549;42.162;24.726;2023-12-22T11:50:58;45878.06;;;-141.97;71.70
7018;BME280;3549;42.162;24.726;2023-12-22T11:53:30;45995.25;;;-141.97;72.04
7018;BME280;3549;42.162;24.726;2023-12-22T11:56:05;46089.38;;;-141.97;72.55
7018;BME280;3549;42.162;24.726;2023-12-22T11:58:40;46070.16;;;-141.97;72.49
7018;BME280;3549;42.162;24.726;2023-12-22T12:01:10;46016.38;;;-141.97;72.65
7018;BME280;3549;42.162;24.726;2023-12-22T12:03:38;46391.03;;;-141.97;72.83
7018;BME280;3549;42.162;24.726;2023-12-22T12:08:35;45960.66;;;-141.97;72.97
7018;BME280;3549;42.162;24.726;2023-12-22T12:11:00;46367.97;;;-141.97;73.88
7018;BME280;3549;42.162;24.726;2023-12-22T12:13:28;46072.09;;;-141.97;73.16
7018;BME280;3549;42.162;24.726;2023-12-22T12:15:56;46022.13;;;-141.97;74.16
7018;BME280;3549;42.162;24.726;2023-12-22T12:18:27;45778.16;;;-141.97;74.92
7018;BME280;3549;42.162;24.726;2023-12-22T12:20:53;46058.63;;;-141.97;75.60
7018;BME280;3549;42.162;24.726;2023-12-22T12:23:18;45916.47;;;-141.97;76.14
7018;BME280;3549;42.162;24.726;2023-12-22T12:25:43;46004.84;;;-141.97;76.11
7018;BME280;3549;42.162;24.726;2023-12-22T12:28:09;45999.09;;;-141.97;75.80
7018;BME280;3549;42.162;24.726;2023-12-22T12:30:36;46066.31;;;-141.97;76.08
7018;BME280;3549;42.162;24.726;2023-12-22T12:33:09;45985.63;;;-141.97;75.23
7018;BME280;3549;42.162;24.726;2023-12-22T12:35:36;46440.97;;;-141.97;74.17
7018;BME280;3549;42.162;24.726;2023-12-22T12:38:03;45931.84;;;-141.97;73.67
7018;BME280;3549;42.162;24.726;2023-12-22T12:40:29;46045.19;;;-141.97;72.26
7018;BME280;3549;42.162;24.726;2023-12-22T12:42:59;45918.41;;;-141.97;71.51
7018;BME280;3549;42.162;24.726;2023-12-22T12:45:25;46031.75;;;-141.97;70.37
7018;BME280;3549;42.162;24.726;2023-12-22T12:47:58;46033.66;;;-141.97;71.22
7018;BME280;3549;42.162;24.726;2023-12-22T12:50:25;45849.25;;;-141.97;70.82
7018;BME280;3549;42.162;24.726;2023-12-22T12:52:53;45928.00;;;-141.97;70.74